Terminal Aerodrome Forecast
Issued by NWS Charleston, WV

Current Version | Previous Version | Text Only | Print | Product List | Glossary Off
Versions: 1 2 3 4 5 6 7 8 9 10 11 12 13 14 15 16 17 18 19 20 21 22 23 24 25 26 27

000
FTUS41 KRLX 231242 AAA
TAFEKN
TAF AMD
KEKN 231242Z 2313/2412 24003KT 6SM BR SCT005 BKN024
     FM231400 28004KT P6SM FEW020
     FM231800 29006KT P6SM SCT040
     FM240800 00000KT 1SM BR BKN001=

USA.gov is the U.S. government's official web portal to all federal, state and local government web resources and services.